sensor_id;sensor_type;location;lat;lon;timestamp;temperature;humidity
12013;DHT22;6065;48.138;16.402;2022-12-29T00:02:05;1.60;99.90
12013;DHT22;6065;48.138;16.402;2022-12-29T00:04:34;1.60;99.90
12013;DHT22;6065;48.138;16.402;2022-12-29T00:07:03;1.60;99.90
12013;DHT22;6065;48.138;16.402;2022-12-29T00:09:30;1.70;99.90
12013;DHT22;6065;48.138;16.402;2022-12-29T00:11:57;1.60;99.90
12013;DHT22;6065;48.138;16.402;2022-12-29T00:14:26;1.60;99.90
12013;DHT22;6065;48.138;16.402;2022-12-29T00:17:11;1.60;99.90
12013;DHT22;6065;48.138;16.402;2022-12-29T00:19:38;1.60;99.90
12013;DHT22;6065;48.138;16.402;2022-12-29T00:22:24;1.60;99.90
12013;DHT22;6065;48.138;16.402;2022-12-29T00:25:12;1.60;99.90
12013;DHT22;6065;48.138;16.402;2022-12-29T00:27:57;1.60;99.90
12013;DHT22;6065;48.138;16.402;2022-12-29T00:30:41;1.50;99.90
12013;DHT22;6065;48.138;16.402;2022-12-29T00:33:28;1.50;99.90
12013;DHT22;6065;48.138;16.402;2022-12-29T00:36:14;1.40;99.90
12013;DHT22;6065;48.138;16.402;2022-12-29T00:38:45;1.30;99.90
12013;DHT22;6065;48.138;16.402;2022-12-29T00:41:31;1.30;99.90
12013;DHT22;6065;48.138;16.402;2022-12-29T00:44:16;1.20;99.90
12013;DHT22;6065;48.138;16.402;2022-12-29T00:46:43;1.20;99.90
12013;DHT22;6065;48.138;16.402;2022-12-29T00:49:13;1.20;99.90
12013;DHT22;6065;48.138;16.402;2022-12-29T00:52:00;1.10;99.90
12013;DHT22;6065;48.138;16.402;2022-12-29T00:54:29;1.10;99.90
12013;DHT22;6065;48.138;16.402;2022-12-29T00:56:57;1.10;99.90
12013;DHT22;6065;48.138;16.402;2022-12-29T00:59:24;1.00;99.90
12013;DHT22;6065;48.138;16.402;2022-12-29T01:01:53;1.00;99.90
12013;DHT22;6065;48.138;16.402;2022-12-29T01:04:23;1.00;99.90
12013;DHT22;6065;48.138;16.402;2022-12-29T01:06:51;1.00;99.90
12013;DHT22;6065;48.138;16.402;2022-12-29T01:09:19;1.00;99.90
12013;DHT22;6065;48.138;16.402;2022-12-29T01:12:06;1.00;99.90
12013;DHT22;6065;48.138;16.402;2022-12-29T01:14:34;1.10;99.90
12013;DHT22;6065;48.138;16.402;2022-12-29T01:17:02;1.10;99.90
12013;DHT22;6065;48.138;16.402;2022-12-29T01:19:31;1.10;99.90
12013;DHT22;6065;48.138;16.402;2022-12-29T01:21:58;1.10;99.90
12013;DHT22;6065;48.138;16.402;2022-12-29T01:24:25;1.10;99.90
12013;DHT22;6065;48.138;16.402;2022-12-29T01:26:53;1.10;99.90
12013;DHT22;6065;48.138;16.402;2022-12-29T01:29:24;1.00;99.90
12013;DHT22;6065;48.138;16.402;2022-12-29T01:31:52;0.90;99.90
12013;DHT22;6065;48.138;16.402;2022-12-29T01:34:20;0.90;99.90
12013;DHT22;6065;48.138;16.402;2022-12-29T01:36:49;0.80;99.90
12013;DHT22;6065;48.138;16.402;2022-12-29T01:39:18;0.80;99.90
12013;DHT22;6065;48.138;16.402;2022-12-29T01:41:45;0.80;99.90
12013;DHT22;6065;48.138;16.402;2022-12-29T01:47:00;0.70;99.90
12013;DHT22;6065;48.138;16.402;2022-12-29T01:49:33;0.70;99.90
12013;DHT22;6065;48.138;16.402;2022-12-29T01:52:02;0.70;99.90
12013;DHT22;6065;48.138;16.402;2022-12-29T01:54:31;0.80;99.90
12013;DHT22;6065;48.138;16.402;2022-12-29T01:57:00;0.80;99.90
12013;DHT22;6065;48.138;16.402;2022-12-29T01:59:31;0.80;99.90
12013;DHT22;6065;48.138;16.402;2022-12-29T02:02:03;0.90;99.90
12013;DHT22;6065;48.138;16.402;2022-12-29T02:04:31;0.80;99.90
12013;DHT22;6065;48.138;16.402;2022-12-29T02:07:00;0.80;99.90
12013;DHT22;6065;48.138;16.402;2022-12-29T02:09:28;0.90;99.90
12013;DHT22;6065;48.138;16.402;2022-12-29T02:11:57;0.90;99.90
12013;DHT22;6065;48.138;16.402;2022-12-29T02:14:25;0.90;99.90
12013;DHT22;6065;48.138;16.402;2022-12-29T02:16:58;0.80;99.90
12013;DHT22;6065;48.138;16.402;2022-12-29T02:22:36;0.70;99.90
12013;DHT22;6065;48.138;16.402;2022-12-29T02:28:08;0.60;99.90
12013;DHT22;6065;48.138;16.402;2022-12-29T02:30:46;0.60;99.90
12013;DHT22;6065;48.138;16.402;2022-12-29T02:33:19;0.50;99.90
12013;DHT22;6065;48.138;16.402;2022-12-29T02:35:53;0.50;99.90
12013;DHT22;6065;48.138;16.402;2022-12-29T02:38:27;0.50;99.90
12013;DHT22;6065;48.138;16.402;2022-12-29T02:41:00;0.50;99.90
12013;DHT22;6065;48.138;16.402;2022-12-29T02:43:31;0.50;99.90
12013;DHT22;6065;48.138;16.402;2022-12-29T02:46:03;0.40;99.90
12013;DHT22;6065;48.138;16.402;2022-12-29T02:48:32;0.40;99.90
12013;DHT22;6065;48.138;16.402;2022-12-29T02:51:04;0.40;99.90
12013;DHT22;6065;48.138;16.402;2022-12-29T02:53:34;0.30;99.90
12013;DHT22;6065;48.138;16.402;2022-12-29T02:56:20;0.30;99.90
12013;DHT22;6065;48.138;16.402;2022-12-29T02:58:47;0.30;99.90
12013;DHT22;6065;48.138;16.402;2022-12-29T03:01:21;0.30;99.90
12013;DHT22;6065;48.138;16.402;2022-12-29T03:04:00;0.30;99.90
12013;DHT22;6065;48.138;16.402;2022-12-29T03:06:32;0.30;99.90
12013;DHT22;6065;48.138;16.402;2022-12-29T03:09:06;0.30;99.90
12013;DHT22;6065;48.138;16.402;2022-12-29T03:11:38;0.30;99.90
12013;DHT22;6065;48.138;16.402;2022-12-29T03:14:26;0.30;99.90
12013;DHT22;6065;48.138;16.402;2022-12-29T03:17:14;0.20;99.90
12013;DHT22;6065;48.138;16.402;2022-12-29T03:19:57;0.20;99.90
12013;DHT22;6065;48.138;16.402;2022-12-29T03:22:28;0.30;99.90
12013;DHT22;6065;48.138;16.402;2022-12-29T03:24:58;0.20;99.90
12013;DHT22;6065;48.138;16.402;2022-12-29T03:27:29;0.20;99.90
12013;DHT22;6065;48.138;16.402;2022-12-29T03:29:57;0.30;99.90
12013;DHT22;6065;48.138;16.402;2022-12-29T03:32:28;0.30;99.90
12013;DHT22;6065;48.138;16.402;2022-12-29T03:34:57;0.30;99.90
12013;DHT22;6065;48.138;16.402;2022-12-29T03:37:26;0.30;99.90
12013;DHT22;6065;48.138;16.402;2022-12-29T03:39:54;0.30;99.90
12013;DHT22;6065;48.138;16.402;2022-12-29T03:42:23;0.40;99.90
12013;DHT22;6065;48.138;16.402;2022-12-29T03:44:52;0.30;99.90
12013;DHT22;6065;48.138;16.402;2022-12-29T03:47:19;0.30;99.90
12013;DHT22;6065;48.138;16.402;2022-12-29T03:49:47;0.30;99.90
12013;DHT22;6065;48.138;16.402;2022-12-29T03:52:15;0.40;99.90
12013;DHT22;6065;48.138;16.402;2022-12-29T03:54:41;0.40;99.90
12013;DHT22;6065;48.138;16.402;2022-12-29T03:57:08;0.40;99.90
12013;DHT22;6065;48.138;16.402;2022-12-29T03:59:35;0.40;99.90
12013;DHT22;6065;48.138;16.402;2022-12-29T04:02:01;0.30;99.90
12013;DHT22;6065;48.138;16.402;2022-12-29T04:04:28;0.30;99.90
12013;DHT22;6065;48.138;16.402;2022-12-29T04:06:56;0.30;99.90
12013;DHT22;6065;48.138;16.402;2022-12-29T04:09:23;0.30;99.90
12013;DHT22;6065;48.138;16.402;2022-12-29T04:11:49;0.30;99.90
12013;DHT22;6065;48.138;16.402;2022-12-29T04:14:16;0.30;99.90
12013;DHT22;6065;48.138;16.402;2022-12-29T04:16:43;0.20;99.90
12013;DHT22;6065;48.138;16.402;2022-12-29T04:19:10;0.20;99.90
12013;DHT22;6065;48.138;16.402;2022-12-29T04:21:36;0.20;99.90
12013;DHT22;6065;48.138;16.402;2022-12-29T04:24:05;0.10;99.90
12013;DHT22;6065;48.138;16.402;2022-12-29T04:26:32;0.10;99.90
12013;DHT22;6065;48.138;16.402;2022-12-29T04:29:00;0.20;99.90
12013;DHT22;6065;48.138;16.402;2022-12-29T04:31:27;0.20;99.90
12013;DHT22;6065;48.138;16.402;2022-12-29T04:33:54;0.30;99.90
12013;DHT22;6065;48.138;16.402;2022-12-29T04:36:22;0.30;99.90
12013;DHT22;6065;48.138;16.402;2022-12-29T04:38:49;0.30;99.90
12013;DHT22;6065;48.138;16.402;2022-12-29T04:41:17;0.30;99.90
12013;DHT22;6065;48.138;16.402;2022-12-29T04:43:43;0.40;99.90
12013;DHT22;6065;48.138;16.402;2022-12-29T04:46:10;0.30;99.90
12013;DHT22;6065;48.138;16.402;2022-12-29T04:48:37;0.40;99.90
12013;DHT22;6065;48.138;16.402;2022-12-29T04:51:04;0.40;99.90
12013;DHT22;6065;48.138;16.402;2022-12-29T04:53:30;0.30;99.90
12013;DHT22;6065;48.138;16.402;2022-12-29T04:55:57;0.40;99.90
12013;DHT22;6065;48.138;16.402;2022-12-29T04:58:25;0.40;99.90
12013;DHT22;6065;48.138;16.402;2022-12-29T05:00:52;0.30;99.90
12013;DHT22;6065;48.138;16.402;2022-12-29T05:03:19;0.30;99.90
12013;DHT22;6065;48.138;16.402;2022-12-29T05:05:45;0.30;99.90
12013;DHT22;6065;48.138;16.402;2022-12-29T05:08:12;0.30;99.90
12013;DHT22;6065;48.138;16.402;2022-12-29T05:10:40;0.30;99.90
12013;DHT22;6065;48.138;16.402;2022-12-29T05:13:10;0.30;99.90
12013;DHT22;6065;48.138;16.402;2022-12-29T05:15:38;0.30;99.90
12013;DHT22;6065;48.138;16.402;2022-12-29T05:18:04;0.30;99.90
12013;DHT22;6065;48.138;16.402;2022-12-29T05:20:31;0.30;99.90
12013;DHT22;6065;48.138;16.402;2022-12-29T05:22:58;0.20;99.90
12013;DHT22;6065;48.138;16.402;2022-12-29T05:25:24;0.20;99.90
12013;DHT22;6065;48.138;16.402;2022-12-29T05:27:51;0.20;99.90
12013;DHT22;6065;48.138;16.402;2022-12-29T05:30:18;0.10;99.90
12013;DHT22;6065;48.138;16.402;2022-12-29T05:32:46;0.10;99.90
12013;DHT22;6065;48.138;16.402;2022-12-29T05:35:13;0.00;99.90
12013;DHT22;6065;48.138;16.402;2022-12-29T05:37:39;0.00;99.90
12013;DHT22;6065;48.138;16.402;2022-12-29T05:40:07;-0.10;99.90
12013;DHT22;6065;48.138;16.402;2022-12-29T05:42:34;-0.10;99.90
12013;DHT22;6065;48.138;16.402;2022-12-29T05:45:00;-0.10;99.90
12013;DHT22;6065;48.138;16.402;2022-12-29T05:47:27;-0.10;99.90
12013;DHT22;6065;48.138;16.402;2022-12-29T05:49:55;-0.10;99.90
12013;DHT22;6065;48.138;16.402;2022-12-29T05:52:22;-0.10;99.90
12013;DHT22;6065;48.138;16.402;2022-12-29T05:54:49;-0.10;99.90
12013;DHT22;6065;48.138;16.402;2022-12-29T05:57:15;-0.20;99.90
12013;DHT22;6065;48.138;16.402;2022-12-29T05:59:42;-0.20;99.90
12013;DHT22;6065;48.138;16.402;2022-12-29T06:02:09;-0.20;99.90
12013;DHT22;6065;48.138;16.402;2022-12-29T06:04:36;-0.20;99.90
12013;DHT22;6065;48.138;16.402;2022-12-29T06:07:04;-0.10;99.90
12013;DHT22;6065;48.138;16.402;2022-12-29T06:09:31;-0.10;99.90
12013;DHT22;6065;48.138;16.402;2022-12-29T06:11:57;-0.20;99.90
12013;DHT22;6065;48.138;16.402;2022-12-29T06:14:24;-0.20;99.90
12013;DHT22;6065;48.138;16.402;2022-12-29T06:16:51;-0.20;99.90
12013;DHT22;6065;48.138;16.402;2022-12-29T06:19:17;-0.10;99.90
12013;DHT22;6065;48.138;16.402;2022-12-29T06:21:44;-0.10;99.90
12013;DHT22;6065;48.138;16.402;2022-12-29T06:24:12;-0.10;99.90
12013;DHT22;6065;48.138;16.402;2022-12-29T06:26:39;-0.20;99.90
12013;DHT22;6065;48.138;16.402;2022-12-29T06:29:07;-0.10;99.90
12013;DHT22;6065;48.138;16.402;2022-12-29T06:31:34;-0.10;99.90
12013;DHT22;6065;48.138;16.402;2022-12-29T06:34:01;-0.10;99.90
12013;DHT22;6065;48.138;16.402;2022-12-29T06:36:28;-0.20;99.90
12013;DHT22;6065;48.138;16.402;2022-12-29T06:38:54;-0.20;99.90
12013;DHT22;6065;48.138;16.402;2022-12-29T06:41:22;-0.10;99.90
12013;DHT22;6065;48.138;16.402;2022-12-29T06:43:49;-0.10;99.90
12013;DHT22;6065;48.138;16.402;2022-12-29T06:46:16;-0.10;99.90
12013;DHT22;6065;48.138;16.402;2022-12-29T06:48:42;0.00;99.90
12013;DHT22;6065;48.138;16.402;2022-12-29T06:51:09;0.00;99.90
12013;DHT22;6065;48.138;16.402;2022-12-29T06:53:36;0.00;99.90
12013;DHT22;6065;48.138;16.402;2022-12-29T06:56:03;0.00;99.90
12013;DHT22;6065;48.138;16.402;2022-12-29T06:58:31;0.00;99.90
12013;DHT22;6065;48.138;16.402;2022-12-29T07:00:57;0.00;99.90
12013;DHT22;6065;48.138;16.402;2022-12-29T07:03:24;0.00;99.90
12013;DHT22;6065;48.138;16.402;2022-12-29T07:05:51;0.10;99.90
12013;DHT22;6065;48.138;16.402;2022-12-29T07:08:19;0.10;99.90
12013;DHT22;6065;48.138;16.402;2022-12-29T07:10:46;0.10;99.90
12013;DHT22;6065;48.138;16.402;2022-12-29T07:13:13;0.10;99.90
12013;DHT22;6065;48.138;16.402;2022-12-29T07:15:41;0.10;99.90
12013;DHT22;6065;48.138;16.402;2022-12-29T07:18:07;0.10;99.90
12013;DHT22;6065;48.138;16.402;2022-12-29T07:20:34;0.10;99.90
12013;DHT22;6065;48.138;16.402;2022-12-29T07:23:01;0.10;99.90
12013;DHT22;6065;48.138;16.402;2022-12-29T07:25:28;0.10;99.90
12013;DHT22;6065;48.138;16.402;2022-12-29T07:27:55;0.20;99.90
12013;DHT22;6065;48.138;16.402;2022-12-29T07:30:21;0.20;99.90
12013;DHT22;6065;48.138;16.402;2022-12-29T07:32:49;0.20;99.90
12013;DHT22;6065;48.138;16.402;2022-12-29T07:35:16;0.10;99.90
12013;DHT22;6065;48.138;16.402;2022-12-29T07:37:43;0.10;99.90
12013;DHT22;6065;48.138;16.402;2022-12-29T07:40:10;0.10;99.90
12013;DHT22;6065;48.138;16.402;2022-12-29T07:42:38;0.10;99.90
12013;DHT22;6065;48.138;16.402;2022-12-29T07:45:05;0.10;99.90
12013;DHT22;6065;48.138;16.402;2022-12-29T07:47:31;0.10;99.90
12013;DHT22;6065;48.138;16.402;2022-12-29T07:50:00;0.10;99.90
12013;DHT22;6065;48.138;16.402;2022-12-29T07:52:26;0.10;99.90
12013;DHT22;6065;48.138;16.402;2022-12-29T07:54:53;0.10;99.90
12013;DHT22;6065;48.138;16.402;2022-12-29T07:57:20;0.10;99.90
12013;DHT22;6065;48.138;16.402;2022-12-29T07:59:46;0.00;99.90
12013;DHT22;6065;48.138;16.402;2022-12-29T08:02:13;0.00;99.90
12013;DHT22;6065;48.138;16.402;2022-12-29T08:04:40;-0.10;99.90
12013;DHT22;6065;48.138;16.402;2022-12-29T08:07:08;-0.10;99.90
12013;DHT22;6065;48.138;16.402;2022-12-29T08:09:35;-0.10;99.90
12013;DHT22;6065;48.138;16.402;2022-12-29T08:12:01;-0.20;99.90
12013;DHT22;6065;48.138;16.402;2022-12-29T08:14:28;-0.10;99.90
12013;DHT22;6065;48.138;16.402;2022-12-29T08:16:55;0.00;99.90
12013;DHT22;6065;48.138;16.402;2022-12-29T08:19:21;0.00;99.90
12013;DHT22;6065;48.138;16.402;2022-12-29T08:21:52;0.10;99.90
12013;DHT22;6065;48.138;16.402;2022-12-29T08:24:20;0.20;99.90
12013;DHT22;6065;48.138;16.402;2022-12-29T08:26:47;0.30;99.90
12013;DHT22;6065;48.138;16.402;2022-12-29T08:29:13;0.30;99.90
12013;DHT22;6065;48.138;16.402;2022-12-29T08:31:41;0.40;99.90
12013;DHT22;6065;48.138;16.402;2022-12-29T08:34:08;0.40;99.90
12013;DHT22;6065;48.138;16.402;2022-12-29T08:36:34;0.40;99.90
12013;DHT22;6065;48.138;16.402;2022-12-29T08:39:01;0.40;99.90
12013;DHT22;6065;48.138;16.402;2022-12-29T08:41:29;0.40;99.90
12013;DHT22;6065;48.138;16.402;2022-12-29T08:43:56;0.40;99.90
12013;DHT22;6065;48.138;16.402;2022-12-29T08:46:23;0.40;99.90
12013;DHT22;6065;48.138;16.402;2022-12-29T08:48:50;0.40;99.90
12013;DHT22;6065;48.138;16.402;2022-12-29T08:51:16;0.40;99.90
12013;DHT22;6065;48.138;16.402;2022-12-29T08:53:43;0.30;99.90
12013;DHT22;6065;48.138;16.402;2022-12-29T08:56:10;0.30;99.90
12013;DHT22;6065;48.138;16.402;2022-12-29T08:58:40;0.30;99.90
12013;DHT22;6065;48.138;16.402;2022-12-29T09:01:10;0.30;99.90
12013;DHT22;6065;48.138;16.402;2022-12-29T09:03:37;0.20;99.90
12013;DHT22;6065;48.138;16.402;2022-12-29T09:06:04;0.20;99.90
12013;DHT22;6065;48.138;16.402;2022-12-29T09:08:30;0.10;99.90
12013;DHT22;6065;48.138;16.402;2022-12-29T09:11:04;0.10;99.90
12013;DHT22;6065;48.138;16.402;2022-12-29T09:13:31;0.10;99.90
12013;DHT22;6065;48.138;16.402;2022-12-29T09:15:59;0.10;99.90
12013;DHT22;6065;48.138;16.402;2022-12-29T09:18:26;0.10;99.90
12013;DHT22;6065;48.138;16.402;2022-12-29T09:20:55;0.20;99.90
12013;DHT22;6065;48.138;16.402;2022-12-29T09:23:22;0.30;99.90
12013;DHT22;6065;48.138;16.402;2022-12-29T09:25:49;0.30;99.90
12013;DHT22;6065;48.138;16.402;2022-12-29T09:28:16;0.20;99.90
12013;DHT22;6065;48.138;16.402;2022-12-29T09:30:42;0.20;99.90
12013;DHT22;6065;48.138;16.402;2022-12-29T09:33:10;0.20;99.90
12013;DHT22;6065;48.138;16.402;2022-12-29T09:35:40;0.20;99.90
12013;DHT22;6065;48.138;16.402;2022-12-29T09:38:07;0.20;99.90
12013;DHT22;6065;48.138;16.402;2022-12-29T09:40:34;0.20;99.90
12013;DHT22;6065;48.138;16.402;2022-12-29T09:45:43;0.20;99.90
12013;DHT22;6065;48.138;16.402;2022-12-29T09:48:13;0.20;99.90
12013;DHT22;6065;48.138;16.402;2022-12-29T09:50:40;0.30;99.90
12013;DHT22;6065;48.138;16.402;2022-12-29T09:53:13;0.30;99.90
12013;DHT22;6065;48.138;16.402;2022-12-29T09:55:42;0.30;99.90
12013;DHT22;6065;48.138;16.402;2022-12-29T09:58:11;0.30;99.90
12013;DHT22;6065;48.138;16.402;2022-12-29T10:00:41;0.40;99.90
12013;DHT22;6065;48.138;16.402;2022-12-29T10:03:13;0.40;99.90
12013;DHT22;6065;48.138;16.402;2022-12-29T10:05:43;0.50;99.90
12013;DHT22;6065;48.138;16.402;2022-12-29T10:08:16;0.50;99.90
12013;DHT22;6065;48.138;16.402;2022-12-29T10:10:49;0.60;99.90
12013;DHT22;6065;48.138;16.402;2022-12-29T10:13:23;0.60;99.90
12013;DHT22;6065;48.138;16.402;2022-12-29T10:15:54;0.60;99.90
12013;DHT22;6065;48.138;16.402;2022-12-29T10:21:12;0.70;99.90
12013;DHT22;6065;48.138;16.402;2022-12-29T10:23:42;0.70;99.90
12013;DHT22;6065;48.138;16.402;2022-12-29T10:26:10;0.80;99.90
12013;DHT22;6065;48.138;16.402;2022-12-29T10:28:38;0.70;99.90
12013;DHT22;6065;48.138;16.402;2022-12-29T10:31:07;0.70;99.90
12013;DHT22;6065;48.138;16.402;2022-12-29T10:33:36;0.80;99.90
12013;DHT22;6065;48.138;16.402;2022-12-29T10:36:09;0.80;99.90
12013;DHT22;6065;48.138;16.402;2022-12-29T10:38:38;0.80;99.90
12013;DHT22;6065;48.138;16.402;2022-12-29T10:41:08;0.80;99.90
12013;DHT22;6065;48.138;16.402;2022-12-29T10:43:40;0.80;99.90
12013;DHT22;6065;48.138;16.402;2022-12-29T10:46:10;0.80;99.90
12013;DHT22;6065;48.138;16.402;2022-12-29T10:48:38;0.80;99.90
12013;DHT22;6065;48.138;16.402;2022-12-29T10:51:05;0.80;99.90
12013;DHT22;6065;48.138;16.402;2022-12-29T10:53:38;0.80;99.90
12013;DHT22;6065;48.138;16.402;2022-12-29T10:56:09;0.80;99.90
12013;DHT22;6065;48.138;16.402;2022-12-29T10:58:39;0.80;99.90
12013;DHT22;6065;48.138;16.402;2022-12-29T11:01:07;0.90;99.90
12013;DHT22;6065;48.138;16.402;2022-12-29T11:03:45;0.90;99.90
12013;DHT22;6065;48.138;16.402;2022-12-29T11:06:17;0.90;99.90
12013;DHT22;6065;48.138;16.402;2022-12-29T11:08:49;1.00;99.90
12013;DHT22;6065;48.138;16.402;2022-12-29T11:11:22;1.00;99.90
12013;DHT22;6065;48.138;16.402;2022-12-29T11:13:49;1.00;99.90
12013;DHT22;6065;48.138;16.402;2022-12-29T11:16:22;1.00;99.90
12013;DHT22;6065;48.138;16.402;2022-12-29T11:18:53;1.10;99.90
12013;DHT22;6065;48.138;16.402;2022-12-29T11:21:27;1.10;99.90
12013;DHT22;6065;48.138;16.402;2022-12-29T11:23:56;1.10;99.90
12013;DHT22;6065;48.138;16.402;2022-12-29T11:26:23;1.10;99.90
12013;DHT22;6065;48.138;16.402;2022-12-29T11:29:09;1.10;99.90
12013;DHT22;6065;48.138;16.402;2022-12-29T11:31:40;1.20;99.90
12013;DHT22;6065;48.138;16.402;2022-12-29T11:34:07;1.20;99.90
12013;DHT22;6065;48.138;16.402;2022-12-29T11:36:34;1.20;99.90
12013;DHT22;6065;48.138;16.402;2022-12-29T11:39:02;1.20;99.90
12013;DHT22;6065;48.138;16.402;2022-12-29T11:41:29;1.20;99.90
12013;DHT22;6065;48.138;16.402;2022-12-29T11:43:57;1.20;99.90
12013;DHT22;6065;48.138;16.402;2022-12-29T11:46:25;1.30;99.90
12013;DHT22;6065;48.138;16.402;2022-12-29T11:48:53;1.30;99.90
12013;DHT22;6065;48.138;16.402;2022-12-29T11:51:24;1.20;99.90
12013;DHT22;6065;48.138;16.402;2022-12-29T11:53:52;1.30;99.90
12013;DHT22;6065;48.138;16.402;2022-12-29T11:56:22;1.30;99.90
12013;DHT22;6065;48.138;16.402;2022-12-29T11:58:56;1.30;99.90
12013;DHT22;6065;48.138;16.402;2022-12-29T12:01:25;1.30;99.90
12013;DHT22;6065;48.138;16.402;2022-12-29T12:03:56;1.30;99.90
12013;DHT22;6065;48.138;16.402;2022-12-29T12:06:23;1.30;99.90
12013;DHT22;6065;48.138;16.402;2022-12-29T12:08:53;1.30;99.90
12013;DHT22;6065;48.138;16.402;2022-12-29T12:11:22;1.30;99.90
12013;DHT22;6065;48.138;16.402;2022-12-29T12:13:54;1.30;99.90
12013;DHT22;6065;48.138;16.402;2022-12-29T12:16:24;1.40;99.90
12013;DHT22;6065;48.138;16.402;2022-12-29T12:18:54;1.40;99.90
12013;DHT22;6065;48.138;16.402;2022-12-29T12:21:24;1.40;99.90
12013;DHT22;6065;48.138;16.402;2022-12-29T12:23:56;1.40;99.90
12013;DHT22;6065;48.138;16.402;2022-12-29T12:26:30;1.40;99.90
12013;DHT22;6065;48.138;16.402;2022-12-29T12:28:58;1.40;99.90
12013;DHT22;6065;48.138;16.402;2022-12-29T12:31:39;1.50;99.90
12013;DHT22;6065;48.138;16.402;2022-12-29T12:34:11;1.50;99.90
12013;DHT22;6065;48.138;16.402;2022-12-29T12:36:45;1.50;99.90
12013;DHT22;6065;48.138;16.402;2022-12-29T12:39:18;1.60;99.90
12013;DHT22;6065;48.138;16.402;2022-12-29T12:41:52;1.60;99.90
12013;DHT22;6065;48.138;16.402;2022-12-29T12:44:23;1.60;99.90
12013;DHT22;6065;48.138;16.402;2022-12-29T12:47:00;1.60;99.90
12013;DHT22;6065;48.138;16.402;2022-12-29T12:52:14;1.70;99.90
12013;DHT22;6065;48.138;16.402;2022-12-29T12:54:47;1.70;99.90
12013;DHT22;6065;48.138;16.402;2022-12-29T12:57:21;1.70;99.90
12013;DHT22;6065;48.138;16.402;2022-12-29T12:59:51;1.70;99.90
12013;DHT22;6065;48.138;16.402;2022-12-29T13:02:23;1.70;99.90
12013;DHT22;6065;48.138;16.402;2022-12-29T13:04:57;1.70;99.90
12013;DHT22;6065;48.138;16.402;2022-12-29T13:07:27;1.80;99.90
12013;DHT22;6065;48.138;16.402;2022-12-29T13:10:01;1.70;99.90
12013;DHT22;6065;48.138;16.402;2022-12-29T13:12:34;1.70;99.90
12013;DHT22;6065;48.138;16.402;2022-12-29T13:15:11;1.70;99.90
12013;DHT22;6065;48.138;16.402;2022-12-29T13:17:43;1.70;99.90
12013;DHT22;6065;48.138;16.402;2022-12-29T13:20:16;1.70;99.90
12013;DHT22;6065;48.138;16.402;2022-12-29T13:22:47;1.70;99.90
12013;DHT22;6065;48.138;16.402;2022-12-29T13:25:18;1.70;99.90
12013;DHT22;6065;48.138;16.402;2022-12-29T13:27:51;1.70;99.90
12013;DHT22;6065;48.138;16.402;2022-12-29T13:30:20;1.70;99.90
12013;DHT22;6065;48.138;16.402;2022-12-29T13:32:49;1.70;99.90
12013;DHT22;6065;48.138;16.402;2022-12-29T13:35:23;1.70;99.90
12013;DHT22;6065;48.138;16.402;2022-12-29T13:37:54;1.70;99.90
12013;DHT22;6065;48.138;16.402;2022-12-29T13:40:23;1.70;99.90
12013;DHT22;6065;48.138;16.402;2022-12-29T13:42:52;1.70;99.90
12013;DHT22;6065;48.138;16.402;2022-12-29T13:45:21;1.70;99.90
12013;DHT22;6065;48.138;16.402;2022-12-29T13:47:52;1.70;99.90
12013;DHT22;6065;48.138;16.402;2022-12-29T13:50:22;1.70;99.90
12013;DHT22;6065;48.138;16.402;2022-12-29T13:52:51;1.80;99.90
12013;DHT22;6065;48.138;16.402;2022-12-29T13:55:22;1.80;99.90
12013;DHT22;6065;48.138;16.402;2022-12-29T13:57:51;1.80;99.90
12013;DHT22;6065;48.138;16.402;2022-12-29T14:00:22;1.80;99.90
12013;DHT22;6065;48.138;16.402;2022-12-29T14:05:37;1.80;99.90
12013;DHT22;6065;48.138;16.402;2022-12-29T14:08:14;1.80;99.90
12013;DHT22;6065;48.138;16.402;2022-12-29T14:10:45;1.80;99.90
12013;DHT22;6065;48.138;16.402;2022-12-29T14:13:14;1.80;99.90
12013;DHT22;6065;48.138;16.402;2022-12-29T14:15:43;1.80;99.90
12013;DHT22;6065;48.138;16.402;2022-12-29T14:18:17;1.80;99.90
12013;DHT22;6065;48.138;16.402;2022-12-29T14:20:47;1.70;99.90
12013;DHT22;6065;48.138;16.402;2022-12-29T14:23:24;1.80;99.90
12013;DHT22;6065;48.138;16.402;2022-12-29T14:25:55;1.70;99.90
12013;DHT22;6065;48.138;16.402;2022-12-29T14:28:23;1.70;99.90
12013;DHT22;6065;48.138;16.402;2022-12-29T14:30:52;1.70;99.90
12013;DHT22;6065;48.138;16.402;2022-12-29T14:33:20;1.70;99.90
12013;DHT22;6065;48.138;16.402;2022-12-29T14:35:47;1.70;99.90
12013;DHT22;6065;48.138;16.402;2022-12-29T14:38:18;1.70;99.90
12013;DHT22;6065;48.138;16.402;2022-12-29T14:40:45;1.70;99.90
12013;DHT22;6065;48.138;16.402;2022-12-29T14:43:14;1.70;99.90
12013;DHT22;6065;48.138;16.402;2022-12-29T14:45:43;1.70;99.90
12013;DHT22;6065;48.138;16.402;2022-12-29T14:48:25;1.70;99.90
12013;DHT22;6065;48.138;16.402;2022-12-29T14:50:54;1.70;99.90
12013;DHT22;6065;48.138;16.402;2022-12-29T14:53:41;1.60;99.90
12013;DHT22;6065;48.138;16.402;2022-12-29T14:56:08;1.70;99.90
12013;DHT22;6065;48.138;16.402;2022-12-29T14:58:38;1.60;99.90
12013;DHT22;6065;48.138;16.402;2022-12-29T15:01:13;1.60;99.90
12013;DHT22;6065;48.138;16.402;2022-12-29T15:03:45;1.60;99.90
12013;DHT22;6065;48.138;16.402;2022-12-29T15:06:13;1.70;99.90
12013;DHT22;6065;48.138;16.402;2022-12-29T15:08:44;1.70;99.90
12013;DHT22;6065;48.138;16.402;2022-12-29T15:11:12;1.80;99.90
12013;DHT22;6065;48.138;16.402;2022-12-29T15:13:42;1.80;99.90
12013;DHT22;6065;48.138;16.402;2022-12-29T15:16:21;1.70;99.90
12013;DHT22;6065;48.138;16.402;2022-12-29T15:18:49;1.70;99.90
12013;DHT22;6065;48.138;16.402;2022-12-29T15:21:23;1.60;99.90
12013;DHT22;6065;48.138;16.402;2022-12-29T15:23:50;1.70;99.90
12013;DHT22;6065;48.138;16.402;2022-12-29T15:26:17;1.70;99.90
12013;DHT22;6065;48.138;16.402;2022-12-29T15:28:48;1.60;99.90
12013;DHT22;6065;48.138;16.402;2022-12-29T15:31:16;1.70;99.90
12013;DHT22;6065;48.138;16.402;2022-12-29T15:33:44;1.70;99.90
12013;DHT22;6065;48.138;16.402;2022-12-29T15:36:14;1.70;99.90
12013;DHT22;6065;48.138;16.402;2022-12-29T15:38:44;1.70;99.90
12013;DHT22;6065;48.138;16.402;2022-12-29T15:41:15;1.60;99.90
12013;DHT22;6065;48.138;16.402;2022-12-29T15:43:49;1.60;99.90
12013;DHT22;6065;48.138;16.402;2022-12-29T15:46:17;1.60;99.90
12013;DHT22;6065;48.138;16.402;2022-12-29T15:48:44;1.50;99.90
12013;DHT22;6065;48.138;16.402;2022-12-29T15:51:15;1.50;99.90
12013;DHT22;6065;48.138;16.402;2022-12-29T15:53:44;1.60;99.90
12013;DHT22;6065;48.138;16.402;2022-12-29T15:56:12;1.50;99.90
12013;DHT22;6065;48.138;16.402;2022-12-29T15:58:40;1.50;99.90
12013;DHT22;6065;48.138;16.402;2022-12-29T16:01:16;1.40;99.90
12013;DHT22;6065;48.138;16.402;2022-12-29T16:03:44;1.50;99.90
12013;DHT22;6065;48.138;16.402;2022-12-29T16:06:24;1.40;99.90
12013;DHT22;6065;48.138;16.402;2022-12-29T16:08:55;1.40;99.90
12013;DHT22;6065;48.138;16.402;2022-12-29T16:11:23;1.40;99.90
12013;DHT22;6065;48.138;16.402;2022-12-29T16:13:52;1.40;99.90
12013;DHT22;6065;48.138;16.402;2022-12-29T16:16:21;1.30;99.90
12013;DHT22;6065;48.138;16.402;2022-12-29T16:18:49;1.40;99.90
12013;DHT22;6065;48.138;16.402;2022-12-29T16:21:18;1.30;99.90